Tuesday, January 22, 2019, 4:03 PM EST
Back to Local

KELZ, Wellsville Municipal Airport

Location: Wellsville, NY, United States Lat: 42.1
Local Time: 4:03 PM EST (21:03 GMT) Lon: -78
Time Zone: US/Eastern Elev: 2122 ft

Show me the last for .
Show Decoded

2019-01-22 14:56 METAR KELZ 221956Z AUTO 17010G18KT 140V200 10SM SCT075 M04/M19 A3036 RMK AO2
                 SLP325 T10441189 =
2019-01-22 13:56 METAR KELZ 221856Z AUTO 16005KT 10SM OVC075 M04/M18 A3038 RMK AO2 SLP334
                 T10441178 =
2019-01-22 12:56 METAR KELZ 221756Z AUTO 16006KT 10SM OVC090 M07/M15 A3041 RMK AO2 SLP346
                 T10671150 11067 21189 58023 =
2019-01-22 11:56 METAR KELZ 221656Z AUTO 10005KT 10SM BKN120 M09/M14 A3046 RMK AO2 SLP364
                 T10941144 =
2019-01-22 10:56 METAR KELZ 221556Z AUTO 00000KT 10SM CLR M12/M15 A3049 RMK AO2 SLP379 T11171150
                 =
2019-01-22 09:56 METAR KELZ 221456Z AUTO 14003KT 10SM CLR M16/M17 A3048 RMK AO2 SLP379 T11561167
                 55004 =
2019-01-22 08:56 METAR KELZ 221356Z AUTO 19003KT 10SM CLR M18/M18 A3047 RMK AO2 SLP378 T11781183
                 =
2019-01-22 07:56 METAR KELZ 221256Z AUTO 00000KT 10SM CLR M18/M19 A3048 RMK AO2 SLP381 T11831189
                 =
2019-01-22 06:56 METAR KELZ 221156Z AUTO 00000KT 10SM CLR M18/M20 A3049 RMK AO2 SLP385 I1000
                 I6000 T11781200 11167 21194 53008 =
2019-01-22 05:56 METAR KELZ 221056Z AUTO 00000KT 10SM CLR M18/M19 A3046 RMK AO2 SLP373 I1000
                 T11781189 =
2019-01-22 05:18 METAR KELZ 221018Z AUTO 00000KT 10SM SCT006 M18/M19 A3045 RMK AO2 T11781194 =
2019-01-22 04:56 METAR KELZ 220956Z AUTO 00000KT 10SM OVC006 M17/M19 A3045 RMK AO2 SLP371 I1000
                 T11721189 =
2019-01-22 03:56 METAR KELZ 220856Z AUTO 28006KT 10SM OVC007 M17/M18 A3047 RMK AO2 SLP376 I1000
                 I3000 T11721183 51020 =
2019-01-22 03:37 METAR KELZ 220837Z AUTO 29006KT 10SM BKN008 M19/M19 A3047 RMK AO2 I1000
                 T11891194 =
2019-01-22 03:13 METAR KELZ 220813Z AUTO 30007KT 10SM SCT008 M19/M19 A3046 RMK AO2 T11891194 =
2019-01-22 02:56 METAR KELZ 220756Z AUTO 30007KT 10SM BKN009 M18/M19 A3046 RMK AO2 SLP372 I1000
                 T11831194 =
2019-01-22 02:19 METAR KELZ 220719Z AUTO 31008KT 10SM SCT008 M18/M19 A3045 RMK AO2 T11831194 =
2019-01-22 01:56 METAR KELZ 220656Z AUTO 30008KT 10SM OVC008 M18/M19 A3043 RMK AO2 SLP365 I1000
                 T11831194 =
2019-01-22 01:10 METAR KELZ 220610Z AUTO 29008KT 10SM BKN012 M18/M19 A3042 RMK AO2 I1000
                 T11831194 =
2019-01-22 00:56 METAR KELZ 220556Z AUTO 29009KT 10SM FEW012 M19/M20 A3041 RMK AO2 SLP356
                 T11891200 11167 21189 51006 =
2019-01-21 23:56 METAR KELZ 220456Z AUTO 31007KT 10SM CLR M18/M19 A3039 RMK AO2 SLP352 T11781194
                 411671233 =
2019-01-21 23:43 METAR KELZ 220443Z AUTO 31006KT 10SM SCT012 M18/M19 A3039 RMK AO2 T11781189 =
2019-01-21 23:26 METAR KELZ 220426Z AUTO 31006KT 10SM BKN013 M18/M19 A3040 RMK AO2 T11781194 =
2019-01-21 22:56 METAR KELZ 220356Z AUTO 30007KT 10SM FEW014 M18/M20 A3041 RMK AO2 SLP359
                 T11831200 =
2019-01-21 21:56 METAR KELZ 220256Z AUTO 30010KT 10SM CLR M17/M20 A3039 RMK AO2 SLP351 T11721200
                 51022 =
2019-01-21 20:56 METAR KELZ 220156Z AUTO 31014KT 10SM CLR M17/M20 A3036 RMK AO2 SLP343 T11721200
                 =
2019-01-21 19:56 METAR KELZ 220056Z AUTO 31015KT 10SM FEW017 M17/M19 A3035 RMK AO2 SLP338
                 T11671189 =
2019-01-21 19:49 METAR KELZ 220049Z AUTO 31017G21KT 10SM FEW017 M17/M19 A3034 RMK AO2 T11671189 =
2019-01-21 18:56 METAR KELZ 212356Z AUTO 31013G20KT 10SM OVC017 M17/M19 A3032 RMK AO2 SLP329
                 T11671189 11167 21178 53016 =
2019-01-21 18:05 METAR KELZ 212305Z AUTO 31013KT 10SM BKN017 M17/M20 A3030 RMK AO2 T11721200 =
2019-01-21 17:56 METAR KELZ 212256Z AUTO 30014KT 10SM SCT018 M17/M21 A3030 RMK AO2 SLP323
                 T11721206 =
2019-01-21 16:56 METAR KELZ 212156Z AUTO 31016G28KT 8SM CLR M17/M21 A3029 RMK AO2 PK WND
                 30029/2100 SLP318 T11721211 =

Support USWX by starting your Amazon purchase here.